sensor_id;sensor_type;location;lat;lon;timestamp;pressure;altitude;pressure_sealevel;temperature;humidity
34742;BME280;20968;42.696;23.360;2022-11-20T00:01:10;94541.91;;;16.05;72.54
34742;BME280;20968;42.696;23.360;2022-11-20T00:03:36;94536.13;;;16.03;72.86
34742;BME280;20968;42.696;23.360;2022-11-20T00:06:02;94516.69;;;16.03;72.32
34742;BME280;20968;42.696;23.360;2022-11-20T00:08:28;94496.84;;;15.67;74.38
34742;BME280;20968;42.696;23.360;2022-11-20T00:10:54;94522.25;;;15.71;73.39
34742;BME280;20968;42.696;23.360;2022-11-20T00:13:19;94525.91;;;15.79;72.85
34742;BME280;20968;42.696;23.360;2022-11-20T00:15:44;94528.97;;;15.94;72.17
34742;BME280;20968;42.696;23.360;2022-11-20T00:18:10;94527.22;;;15.91;72.01
34742;BME280;20968;42.696;23.360;2022-11-20T00:20:35;94538.50;;;15.99;70.40
34742;BME280;20968;42.696;23.360;2022-11-20T00:23:00;94539.19;;;16.18;70.11
34742;BME280;20968;42.696;23.360;2022-11-20T00:25:26;94538.13;;;16.21;69.98
34742;BME280;20968;42.696;23.360;2022-11-20T00:27:51;94510.25;;;16.26;70.20
34742;BME280;20968;42.696;23.360;2022-11-20T00:30:17;94517.44;;;16.35;69.15
34742;BME280;20968;42.696;23.360;2022-11-20T00:32:42;94536.41;;;16.36;68.84
34742;BME280;20968;42.696;23.360;2022-11-20T00:35:08;94536.91;;;16.35;69.06
34742;BME280;20968;42.696;23.360;2022-11-20T00:37:33;94520.47;;;16.37;68.93
34742;BME280;20968;42.696;23.360;2022-11-20T00:39:59;94523.81;;;16.61;67.23
34742;BME280;20968;42.696;23.360;2022-11-20T00:42:24;94511.50;;;16.56;67.68
34742;BME280;20968;42.696;23.360;2022-11-20T00:44:49;94512.47;;;16.59;67.93
34742;BME280;20968;42.696;23.360;2022-11-20T00:47:15;94507.66;;;16.46;68.44
34742;BME280;20968;42.696;23.360;2022-11-20T00:49:40;94544.63;;;16.41;67.14
34742;BME280;20968;42.696;23.360;2022-11-20T00:52:06;94520.59;;;16.57;65.85
34742;BME280;20968;42.696;23.360;2022-11-20T00:54:31;94503.28;;;16.64;66.21
34742;BME280;20968;42.696;23.360;2022-11-20T00:56:56;94536.97;;;16.73;66.13
34742;BME280;20968;42.696;23.360;2022-11-20T00:59:22;94533.88;;;16.64;68.00
34742;BME280;20968;42.696;23.360;2022-11-20T01:01:47;94508.19;;;16.71;65.16
34742;BME280;20968;42.696;23.360;2022-11-20T01:04:13;94512.59;;;16.79;64.94
34742;BME280;20968;42.696;23.360;2022-11-20T01:06:39;94517.72;;;16.88;64.46
34742;BME280;20968;42.696;23.360;2022-11-20T01:09:12;94512.38;;;16.90;63.35
34742;BME280;20968;42.696;23.360;2022-11-20T01:11:41;94524.13;;;17.22;60.51
34742;BME280;20968;42.696;23.360;2022-11-20T01:14:11;94505.59;;;17.37;60.90
34742;BME280;20968;42.696;23.360;2022-11-20T01:16:56;94513.41;;;17.39;60.76
34742;BME280;20968;42.696;23.360;2022-11-20T01:19:23;94505.44;;;17.56;60.75
34742;BME280;20968;42.696;23.360;2022-11-20T01:21:50;94508.16;;;17.82;57.25
34742;BME280;20968;42.696;23.360;2022-11-20T01:24:18;94510.06;;;18.07;56.16
34742;BME280;20968;42.696;23.360;2022-11-20T01:26:45;94488.16;;;18.44;54.52
34742;BME280;20968;42.696;23.360;2022-11-20T01:29:21;94505.69;;;18.52;54.95
34742;BME280;20968;42.696;23.360;2022-11-20T01:31:47;94480.41;;;18.58;55.40
34742;BME280;20968;42.696;23.360;2022-11-20T01:34:15;94478.69;;;18.75;55.04
34742;BME280;20968;42.696;23.360;2022-11-20T01:36:41;94484.56;;;18.64;54.80
34742;BME280;20968;42.696;23.360;2022-11-20T01:39:14;94453.50;;;18.60;56.20
34742;BME280;20968;42.696;23.360;2022-11-20T01:41:41;94494.19;;;18.56;56.04
34742;BME280;20968;42.696;23.360;2022-11-20T01:44:51;94440.88;;;18.39;57.78
34742;BME280;20968;42.696;23.360;2022-11-20T01:47:23;94469.66;;;18.13;59.02
34742;BME280;20968;42.696;23.360;2022-11-20T01:49:56;94472.22;;;18.11;58.40
34742;BME280;20968;42.696;23.360;2022-11-20T01:52:37;94476.16;;;18.16;57.66
34742;BME280;20968;42.696;23.360;2022-11-20T01:55:07;94491.38;;;18.15;57.80
34742;BME280;20968;42.696;23.360;2022-11-20T01:57:35;94493.78;;;18.11;57.57
34742;BME280;20968;42.696;23.360;2022-11-20T02:00:05;94485.25;;;18.16;56.73
34742;BME280;20968;42.696;23.360;2022-11-20T02:02:31;94475.59;;;18.17;57.47
34742;BME280;20968;42.696;23.360;2022-11-20T02:05:02;94492.44;;;18.25;56.16
34742;BME280;20968;42.696;23.360;2022-11-20T02:07:29;94492.00;;;18.41;54.54
34742;BME280;20968;42.696;23.360;2022-11-20T02:09:55;94476.44;;;18.73;54.03
34742;BME280;20968;42.696;23.360;2022-11-20T02:12:21;94464.84;;;18.90;53.26
34742;BME280;20968;42.696;23.360;2022-11-20T02:15:05;94473.47;;;19.07;53.04
34742;BME280;20968;42.696;23.360;2022-11-20T02:17:30;94492.16;;;19.12;53.14
34742;BME280;20968;42.696;23.360;2022-11-20T02:19:56;94484.31;;;19.10;53.61
34742;BME280;20968;42.696;23.360;2022-11-20T02:22:29;94483.69;;;19.04;53.88
34742;BME280;20968;42.696;23.360;2022-11-20T02:24:56;94482.16;;;18.96;54.24
34742;BME280;20968;42.696;23.360;2022-11-20T02:27:24;94485.16;;;18.98;54.02
34742;BME280;20968;42.696;23.360;2022-11-20T02:29:50;94503.38;;;18.99;54.11
34742;BME280;20968;42.696;23.360;2022-11-20T02:32:25;94470.41;;;19.18;51.81
34742;BME280;20968;42.696;23.360;2022-11-20T02:34:51;94486.19;;;19.58;50.68
34742;BME280;20968;42.696;23.360;2022-11-20T02:37:17;94473.34;;;19.55;51.00
34742;BME280;20968;42.696;23.360;2022-11-20T02:39:46;94499.78;;;19.54;51.63
34742;BME280;20968;42.696;23.360;2022-11-20T02:42:12;94511.69;;;19.54;52.05
34742;BME280;20968;42.696;23.360;2022-11-20T02:44:37;94511.13;;;19.49;51.76
34742;BME280;20968;42.696;23.360;2022-11-20T02:47:03;94498.44;;;19.48;51.79
34742;BME280;20968;42.696;23.360;2022-11-20T02:49:28;94518.94;;;19.50;52.00
34742;BME280;20968;42.696;23.360;2022-11-20T02:51:53;94531.97;;;19.48;51.84
34742;BME280;20968;42.696;23.360;2022-11-20T02:54:19;94525.47;;;19.52;52.79
34742;BME280;20968;42.696;23.360;2022-11-20T02:56:44;94520.06;;;19.47;51.88
34742;BME280;20968;42.696;23.360;2022-11-20T02:59:10;94537.03;;;19.56;52.10
34742;BME280;20968;42.696;23.360;2022-11-20T03:01:36;94528.47;;;19.54;52.00
34742;BME280;20968;42.696;23.360;2022-11-20T03:04:02;94536.25;;;19.49;51.86
34742;BME280;20968;42.696;23.360;2022-11-20T03:06:28;94539.97;;;19.44;52.50
34742;BME280;20968;42.696;23.360;2022-11-20T03:08:53;94552.25;;;19.41;52.75
34742;BME280;20968;42.696;23.360;2022-11-20T03:11:19;94556.72;;;19.44;53.55
34742;BME280;20968;42.696;23.360;2022-11-20T03:13:44;94541.06;;;19.41;53.49
34742;BME280;20968;42.696;23.360;2022-11-20T03:16:12;94556.31;;;19.40;53.98
34742;BME280;20968;42.696;23.360;2022-11-20T03:18:39;94552.44;;;19.43;53.56
34742;BME280;20968;42.696;23.360;2022-11-20T03:21:05;94549.38;;;19.33;54.47
34742;BME280;20968;42.696;23.360;2022-11-20T03:23:32;94548.66;;;19.33;53.91
34742;BME280;20968;42.696;23.360;2022-11-20T03:28:33;94560.63;;;19.41;53.81
34742;BME280;20968;42.696;23.360;2022-11-20T03:30:58;94577.53;;;19.35;53.88
34742;BME280;20968;42.696;23.360;2022-11-20T03:33:29;94559.84;;;19.40;53.30
34742;BME280;20968;42.696;23.360;2022-11-20T03:35:54;94557.53;;;19.24;54.65
34742;BME280;20968;42.696;23.360;2022-11-20T03:38:20;94566.63;;;19.17;54.37
34742;BME280;20968;42.696;23.360;2022-11-20T03:40:45;94570.19;;;19.17;54.01
34742;BME280;20968;42.696;23.360;2022-11-20T03:43:11;94577.84;;;19.24;54.27
34742;BME280;20968;42.696;23.360;2022-11-20T03:45:36;94574.09;;;19.22;54.29
34742;BME280;20968;42.696;23.360;2022-11-20T03:48:01;94571.50;;;19.24;53.80
34742;BME280;20968;42.696;23.360;2022-11-20T03:50:27;94580.63;;;19.24;54.28
34742;BME280;20968;42.696;23.360;2022-11-20T03:52:52;94576.28;;;19.16;54.23
34742;BME280;20968;42.696;23.360;2022-11-20T03:55:17;94563.09;;;19.16;54.72
34742;BME280;20968;42.696;23.360;2022-11-20T03:57:43;94554.84;;;19.11;54.97
34742;BME280;20968;42.696;23.360;2022-11-20T04:00:09;94557.31;;;19.14;54.50
34742;BME280;20968;42.696;23.360;2022-11-20T04:02:34;94552.88;;;19.19;54.15
34742;BME280;20968;42.696;23.360;2022-11-20T04:05:00;94569.97;;;19.15;54.24
34742;BME280;20968;42.696;23.360;2022-11-20T04:07:25;94564.72;;;19.12;54.10
34742;BME280;20968;42.696;23.360;2022-11-20T04:09:51;94565.25;;;19.10;54.86
34742;BME280;20968;42.696;23.360;2022-11-20T04:12:16;94582.97;;;19.13;54.69
34742;BME280;20968;42.696;23.360;2022-11-20T04:14:41;94568.47;;;19.14;54.66
34742;BME280;20968;42.696;23.360;2022-11-20T04:17:07;94578.69;;;19.12;54.28
34742;BME280;20968;42.696;23.360;2022-11-20T04:19:32;94575.13;;;19.11;54.88
34742;BME280;20968;42.696;23.360;2022-11-20T04:21:57;94568.69;;;19.16;54.78
34742;BME280;20968;42.696;23.360;2022-11-20T04:24:23;94586.50;;;19.13;54.46
34742;BME280;20968;42.696;23.360;2022-11-20T04:26:48;94561.31;;;19.06;54.27
34742;BME280;20968;42.696;23.360;2022-11-20T04:29:14;94572.41;;;18.98;54.54
34742;BME280;20968;42.696;23.360;2022-11-20T04:31:39;94565.47;;;18.92;54.55
34742;BME280;20968;42.696;23.360;2022-11-20T04:34:06;94562.16;;;18.93;54.15
34742;BME280;20968;42.696;23.360;2022-11-20T04:36:32;94580.41;;;18.94;54.38
34742;BME280;20968;42.696;23.360;2022-11-20T04:39:03;94580.06;;;18.98;54.23
34742;BME280;20968;42.696;23.360;2022-11-20T04:41:31;94585.78;;;19.13;53.92
34742;BME280;20968;42.696;23.360;2022-11-20T04:43:59;94594.50;;;19.09;54.02
34742;BME280;20968;42.696;23.360;2022-11-20T04:46:29;94586.25;;;19.04;54.21
34742;BME280;20968;42.696;23.360;2022-11-20T04:48:55;94576.38;;;19.03;54.27
34742;BME280;20968;42.696;23.360;2022-11-20T04:51:21;94560.56;;;19.05;54.59
34742;BME280;20968;42.696;23.360;2022-11-20T04:53:48;94554.03;;;19.03;54.90
34742;BME280;20968;42.696;23.360;2022-11-20T04:56:14;94570.31;;;19.12;55.19
34742;BME280;20968;42.696;23.360;2022-11-20T04:58:40;94556.81;;;19.03;55.14
34742;BME280;20968;42.696;23.360;2022-11-20T05:01:08;94560.16;;;19.01;55.46
34742;BME280;20968;42.696;23.360;2022-11-20T05:03:34;94560.91;;;19.02;54.87
34742;BME280;20968;42.696;23.360;2022-11-20T05:06:01;94540.78;;;18.96;55.44
34742;BME280;20968;42.696;23.360;2022-11-20T05:08:27;94545.81;;;18.97;54.92
34742;BME280;20968;42.696;23.360;2022-11-20T05:10:52;94526.16;;;18.82;56.08
34742;BME280;20968;42.696;23.360;2022-11-20T05:13:18;94536.38;;;18.80;55.64
34742;BME280;20968;42.696;23.360;2022-11-20T05:15:43;94549.31;;;18.70;55.52
34742;BME280;20968;42.696;23.360;2022-11-20T05:18:08;94530.91;;;18.67;56.21
34742;BME280;20968;42.696;23.360;2022-11-20T05:20:34;94528.03;;;18.60;56.15
34742;BME280;20968;42.696;23.360;2022-11-20T05:23:01;94526.53;;;18.59;56.64
34742;BME280;20968;42.696;23.360;2022-11-20T05:25:27;94528.81;;;18.60;56.54
34742;BME280;20968;42.696;23.360;2022-11-20T05:27:53;94524.88;;;18.56;56.92
34742;BME280;20968;42.696;23.360;2022-11-20T05:30:18;94532.47;;;18.55;57.89
34742;BME280;20968;42.696;23.360;2022-11-20T05:32:44;94528.38;;;18.56;58.14
34742;BME280;20968;42.696;23.360;2022-11-20T05:35:09;94530.56;;;18.50;59.83
34742;BME280;20968;42.696;23.360;2022-11-20T05:37:34;94534.19;;;18.38;60.16
34742;BME280;20968;42.696;23.360;2022-11-20T05:40:00;94546.00;;;18.31;61.60
34742;BME280;20968;42.696;23.360;2022-11-20T05:42:25;94550.03;;;18.22;61.93
34742;BME280;20968;42.696;23.360;2022-11-20T05:45:01;94551.41;;;18.16;62.03
34742;BME280;20968;42.696;23.360;2022-11-20T05:47:28;94549.22;;;18.01;63.25
34742;BME280;20968;42.696;23.360;2022-11-20T05:49:56;94547.44;;;17.91;63.20
34742;BME280;20968;42.696;23.360;2022-11-20T05:52:21;94546.03;;;17.97;62.91
34742;BME280;20968;42.696;23.360;2022-11-20T05:54:46;94561.41;;;18.11;67.18
34742;BME280;20968;42.696;23.360;2022-11-20T05:57:12;94549.66;;;18.05;64.29
34742;BME280;20968;42.696;23.360;2022-11-20T05:59:37;94547.59;;;18.06;63.49
34742;BME280;20968;42.696;23.360;2022-11-20T06:02:03;94547.69;;;18.13;63.31
34742;BME280;20968;42.696;23.360;2022-11-20T06:04:28;94548.75;;;18.10;61.30
34742;BME280;20968;42.696;23.360;2022-11-20T06:06:54;94556.16;;;18.08;61.74
34742;BME280;20968;42.696;23.360;2022-11-20T06:09:19;94553.16;;;18.06;61.58
34742;BME280;20968;42.696;23.360;2022-11-20T06:11:44;94539.56;;;18.02;61.55
34742;BME280;20968;42.696;23.360;2022-11-20T06:14:10;94542.03;;;18.06;61.16
34742;BME280;20968;42.696;23.360;2022-11-20T06:16:35;94548.69;;;18.03;61.62
34742;BME280;20968;42.696;23.360;2022-11-20T06:19:00;94549.44;;;18.03;61.25
34742;BME280;20968;42.696;23.360;2022-11-20T06:21:26;94543.47;;;17.99;61.57
34742;BME280;20968;42.696;23.360;2022-11-20T06:23:52;94548.34;;;18.06;61.07
34742;BME280;20968;42.696;23.360;2022-11-20T06:26:20;94557.66;;;18.09;60.76
34742;BME280;20968;42.696;23.360;2022-11-20T06:28:46;94546.53;;;18.09;61.34
34742;BME280;20968;42.696;23.360;2022-11-20T06:31:14;94556.91;;;18.08;60.77
34742;BME280;20968;42.696;23.360;2022-11-20T06:33:40;94563.84;;;18.15;60.39
34742;BME280;20968;42.696;23.360;2022-11-20T06:36:05;94564.59;;;18.15;60.87
34742;BME280;20968;42.696;23.360;2022-11-20T06:38:31;94560.34;;;18.14;61.04
34742;BME280;20968;42.696;23.360;2022-11-20T06:40:57;94547.69;;;18.13;61.31
34742;BME280;20968;42.696;23.360;2022-11-20T06:43:23;94550.47;;;18.13;61.59
34742;BME280;20968;42.696;23.360;2022-11-20T06:45:53;94551.00;;;18.12;61.50
34742;BME280;20968;42.696;23.360;2022-11-20T06:48:19;94548.88;;;18.05;61.12
34742;BME280;20968;42.696;23.360;2022-11-20T06:50:44;94553.59;;;18.10;60.80
34742;BME280;20968;42.696;23.360;2022-11-20T06:53:09;94555.28;;;18.13;60.63
34742;BME280;20968;42.696;23.360;2022-11-20T06:55:35;94567.81;;;18.19;60.63
34742;BME280;20968;42.696;23.360;2022-11-20T06:58:00;94565.16;;;18.14;60.60
34742;BME280;20968;42.696;23.360;2022-11-20T07:00:26;94568.06;;;18.08;61.02
34742;BME280;20968;42.696;23.360;2022-11-20T07:02:51;94559.69;;;18.08;60.90
34742;BME280;20968;42.696;23.360;2022-11-20T07:05:17;94571.47;;;18.14;60.13
34742;BME280;20968;42.696;23.360;2022-11-20T07:07:42;94571.16;;;18.18;59.78
34742;BME280;20968;42.696;23.360;2022-11-20T07:10:08;94572.13;;;18.20;59.77
34742;BME280;20968;42.696;23.360;2022-11-20T07:12:34;94564.06;;;18.17;59.36
34742;BME280;20968;42.696;23.360;2022-11-20T07:14:59;94561.19;;;18.22;59.53
34742;BME280;20968;42.696;23.360;2022-11-20T07:17:25;94586.81;;;18.41;58.81
34742;BME280;20968;42.696;23.360;2022-11-20T07:19:50;94584.16;;;18.36;58.65
34742;BME280;20968;42.696;23.360;2022-11-20T07:22:16;94581.91;;;18.34;58.40
34742;BME280;20968;42.696;23.360;2022-11-20T07:24:41;94582.47;;;18.33;58.78
34742;BME280;20968;42.696;23.360;2022-11-20T07:27:06;94585.78;;;18.31;59.06
34742;BME280;20968;42.696;23.360;2022-11-20T07:29:32;94584.09;;;18.28;59.00
34742;BME280;20968;42.696;23.360;2022-11-20T07:31:57;94593.00;;;18.27;59.59
34742;BME280;20968;42.696;23.360;2022-11-20T07:34:23;94584.84;;;18.29;59.14
34742;BME280;20968;42.696;23.360;2022-11-20T07:36:48;94585.59;;;18.29;58.48
34742;BME280;20968;42.696;23.360;2022-11-20T07:39:14;94595.09;;;18.34;58.33
34742;BME280;20968;42.696;23.360;2022-11-20T07:41:39;94595.88;;;18.34;58.38
34742;BME280;20968;42.696;23.360;2022-11-20T07:44:05;94597.75;;;18.39;58.35
34742;BME280;20968;42.696;23.360;2022-11-20T07:46:30;94592.66;;;18.30;58.23
34742;BME280;20968;42.696;23.360;2022-11-20T07:48:55;94591.69;;;18.28;58.94
34742;BME280;20968;42.696;23.360;2022-11-20T07:51:21;94591.38;;;18.31;59.16
34742;BME280;20968;42.696;23.360;2022-11-20T07:53:47;94591.50;;;18.26;59.30
34742;BME280;20968;42.696;23.360;2022-11-20T07:56:12;94586.06;;;18.20;59.22
34742;BME280;20968;42.696;23.360;2022-11-20T07:58:39;94584.88;;;18.16;59.21
34742;BME280;20968;42.696;23.360;2022-11-20T08:01:06;94592.91;;;18.19;59.16
34742;BME280;20968;42.696;23.360;2022-11-20T08:03:32;94591.41;;;18.18;59.39
34742;BME280;20968;42.696;23.360;2022-11-20T08:06:01;94591.41;;;18.18;60.44
34742;BME280;20968;42.696;23.360;2022-11-20T08:08:27;94582.72;;;18.22;59.99
34742;BME280;20968;42.696;23.360;2022-11-20T08:10:53;94592.38;;;18.21;59.61
34742;BME280;20968;42.696;23.360;2022-11-20T08:13:38;94592.81;;;18.25;59.55
34742;BME280;20968;42.696;23.360;2022-11-20T08:16:22;94576.72;;;18.18;59.68
34742;BME280;20968;42.696;23.360;2022-11-20T08:18:48;94566.09;;;18.16;59.84
34742;BME280;20968;42.696;23.360;2022-11-20T08:21:13;94576.47;;;18.29;58.89
34742;BME280;20968;42.696;23.360;2022-11-20T08:23:38;94573.38;;;18.19;58.93
34742;BME280;20968;42.696;23.360;2022-11-20T08:26:04;94561.63;;;18.13;58.74
34742;BME280;20968;42.696;23.360;2022-11-20T08:28:29;94577.69;;;18.20;58.75
34742;BME280;20968;42.696;23.360;2022-11-20T08:30:59;94580.84;;;18.37;59.02
34742;BME280;20968;42.696;23.360;2022-11-20T08:33:25;94577.09;;;18.35;58.56
34742;BME280;20968;42.696;23.360;2022-11-20T08:35:50;94591.13;;;18.42;58.33
34742;BME280;20968;42.696;23.360;2022-11-20T08:38:16;94603.44;;;18.47;58.03
34742;BME280;20968;42.696;23.360;2022-11-20T08:40:41;94604.38;;;18.49;58.17
34742;BME280;20968;42.696;23.360;2022-11-20T08:43:26;94593.81;;;18.55;58.81
34742;BME280;20968;42.696;23.360;2022-11-20T08:45:52;94600.78;;;18.62;59.67
34742;BME280;20968;42.696;23.360;2022-11-20T08:48:17;94602.41;;;18.57;60.02
34742;BME280;20968;42.696;23.360;2022-11-20T08:50:42;94610.28;;;18.46;59.83
34742;BME280;20968;42.696;23.360;2022-11-20T08:53:08;94627.56;;;18.44;60.19
34742;BME280;20968;42.696;23.360;2022-11-20T08:55:33;94627.91;;;18.41;59.61
34742;BME280;20968;42.696;23.360;2022-11-20T08:58:04;94638.41;;;18.48;59.31
34742;BME280;20968;42.696;23.360;2022-11-20T09:00:29;94633.88;;;18.45;60.67
34742;BME280;20968;42.696;23.360;2022-11-20T09:02:55;94622.34;;;18.41;61.64
34742;BME280;20968;42.696;23.360;2022-11-20T09:05:20;94624.97;;;18.46;62.07
34742;BME280;20968;42.696;23.360;2022-11-20T09:07:45;94628.41;;;18.52;61.81
34742;BME280;20968;42.696;23.360;2022-11-20T09:10:11;94639.13;;;18.48;62.60
34742;BME280;20968;42.696;23.360;2022-11-20T09:12:36;94629.59;;;18.44;62.56
34742;BME280;20968;42.696;23.360;2022-11-20T09:15:02;94628.44;;;18.39;62.76
34742;BME280;20968;42.696;23.360;2022-11-20T09:17:28;94640.03;;;18.43;62.94
34742;BME280;20968;42.696;23.360;2022-11-20T09:19:53;94629.38;;;18.42;64.31
34742;BME280;20968;42.696;23.360;2022-11-20T09:22:18;94646.94;;;18.50;63.87
34742;BME280;20968;42.696;23.360;2022-11-20T09:24:44;94633.81;;;18.37;64.80
34742;BME280;20968;42.696;23.360;2022-11-20T09:27:09;94638.56;;;18.29;63.86
34742;BME280;20968;42.696;23.360;2022-11-20T09:29:35;94648.63;;;18.32;61.84
34742;BME280;20968;42.696;23.360;2022-11-20T09:32:00;94640.28;;;18.19;63.39
34742;BME280;20968;42.696;23.360;2022-11-20T09:34:25;94641.81;;;18.20;63.34
34742;BME280;20968;42.696;23.360;2022-11-20T09:36:51;94624.00;;;18.10;64.92
34742;BME280;20968;42.696;23.360;2022-11-20T09:39:16;94622.44;;;18.02;65.65
34742;BME280;20968;42.696;23.360;2022-11-20T09:41:55;94624.38;;;17.94;64.45
34742;BME280;20968;42.696;23.360;2022-11-20T09:47:11;94601.25;;;17.86;66.75
34742;BME280;20968;42.696;23.360;2022-11-20T09:52:32;94589.91;;;17.84;66.71
34742;BME280;20968;42.696;23.360;2022-11-20T09:55:03;94599.44;;;17.89;66.81
34742;BME280;20968;42.696;23.360;2022-11-20T09:57:36;94584.22;;;17.90;67.24
34742;BME280;20968;42.696;23.360;2022-11-20T10:00:04;94582.47;;;17.99;67.80
34742;BME280;20968;42.696;23.360;2022-11-20T10:02:52;94592.44;;;17.95;68.93
34742;BME280;20968;42.696;23.360;2022-11-20T10:05:23;94586.22;;;17.89;69.61
34742;BME280;20968;42.696;23.360;2022-11-20T10:10:54;94568.16;;;17.70;70.26
34742;BME280;20968;42.696;23.360;2022-11-20T10:19:10;94568.03;;;17.42;72.05
34742;BME280;20968;42.696;23.360;2022-11-20T10:30:25;94554.53;;;17.33;70.95
34742;BME280;20968;42.696;23.360;2022-11-20T10:33:17;94556.44;;;17.25;71.36
34742;BME280;20968;42.696;23.360;2022-11-20T10:36:00;94555.91;;;17.26;71.74
34742;BME280;20968;42.696;23.360;2022-11-20T10:38:37;94557.44;;;17.27;70.93
34742;BME280;20968;42.696;23.360;2022-11-20T10:41:05;94563.28;;;17.24;71.09
34742;BME280;20968;42.696;23.360;2022-11-20T10:43:53;94558.94;;;17.28;71.88
34742;BME280;20968;42.696;23.360;2022-11-20T10:46:22;94566.00;;;17.29;72.51
34742;BME280;20968;42.696;23.360;2022-11-20T10:48:49;94572.97;;;17.36;72.16
34742;BME280;20968;42.696;23.360;2022-11-20T10:51:42;94574.88;;;17.28;72.83
34742;BME280;20968;42.696;23.360;2022-11-20T10:57:04;94555.06;;;17.18;74.19
34742;BME280;20968;42.696;23.360;2022-11-20T11:02:48;94582.38;;;17.33;73.49
34742;BME280;20968;42.696;23.360;2022-11-20T11:05:37;94574.41;;;17.24;75.04
34742;BME280;20968;42.696;23.360;2022-11-20T11:08:11;94602.94;;;17.30;75.15
34742;BME280;20968;42.696;23.360;2022-11-20T11:10:57;94622.38;;;17.17;75.52
34742;BME280;20968;42.696;23.360;2022-11-20T11:13:29;94597.09;;;16.76;70.33
34742;BME280;20968;42.696;23.360;2022-11-20T11:15:56;94603.38;;;16.33;73.38
34742;BME280;20968;42.696;23.360;2022-11-20T11:18:32;94634.34;;;16.05;72.96
34742;BME280;20968;42.696;23.360;2022-11-20T11:21:04;94641.09;;;15.91;75.23
34742;BME280;20968;42.696;23.360;2022-11-20T11:23:39;94630.44;;;15.77;72.60
34742;BME280;20968;42.696;23.360;2022-11-20T11:26:27;94636.59;;;15.70;70.51
34742;BME280;20968;42.696;23.360;2022-11-20T11:28:54;94631.78;;;15.70;71.07
34742;BME280;20968;42.696;23.360;2022-11-20T11:31:32;94615.59;;;15.56;70.43
34742;BME280;20968;42.696;23.360;2022-11-20T11:34:26;94618.72;;;15.47;72.12
34742;BME280;20968;42.696;23.360;2022-11-20T11:36:56;94634.22;;;15.37;71.99
34742;BME280;20968;42.696;23.360;2022-11-20T11:39:23;94613.22;;;15.23;71.84
34742;BME280;20968;42.696;23.360;2022-11-20T11:41:55;94613.44;;;15.25;72.32
34742;BME280;20968;42.696;23.360;2022-11-20T11:44:43;94611.41;;;15.26;71.85
34742;BME280;20968;42.696;23.360;2022-11-20T11:55:28;94628.44;;;15.35;71.64
34742;BME280;20968;42.696;23.360;2022-11-20T12:00:30;94614.81;;;15.37;72.39
34742;BME280;20968;42.696;23.360;2022-11-20T12:03:17;94606.03;;;15.33;72.50
34742;BME280;20968;42.696;23.360;2022-11-20T12:06:03;94596.66;;;15.36;70.98
34742;BME280;20968;42.696;23.360;2022-11-20T12:08:53;94610.41;;;15.47;69.94
34742;BME280;20968;42.696;23.360;2022-11-20T12:14:03;94611.00;;;15.40;71.50
34742;BME280;20968;42.696;23.360;2022-11-20T12:16:34;94598.84;;;15.43;70.28
34742;BME280;20968;42.696;23.360;2022-11-20T12:19:00;94603.94;;;15.39;70.29
34742;BME280;20968;42.696;23.360;2022-11-20T12:21:28;94608.31;;;15.53;70.36
34742;BME280;20968;42.696;23.360;2022-11-20T12:29:15;94595.63;;;15.39;69.73
34742;BME280;20968;42.696;23.360;2022-11-20T12:35:11;94621.34;;;15.40;71.06
34742;BME280;20968;42.696;23.360;2022-11-20T12:39:57;94594.53;;;15.24;72.83
34742;BME280;20968;42.696;23.360;2022-11-20T12:42:46;94574.38;;;15.23;72.98
34742;BME280;20968;42.696;23.360;2022-11-20T12:45:57;94526.44;;;15.23;74.58
34742;BME280;20968;42.696;23.360;2022-11-20T12:57:21;94557.06;;;15.36;77.47
34742;BME280;20968;42.696;23.360;2022-11-20T13:00:14;94563.53;;;15.25;77.82
34742;BME280;20968;42.696;23.360;2022-11-20T13:05:19;94574.31;;;15.29;78.21
34742;BME280;20968;42.696;23.360;2022-11-20T13:07:47;94552.41;;;15.25;78.29
34742;BME280;20968;42.696;23.360;2022-11-20T13:10:35;94549.25;;;15.34;77.96
34742;BME280;20968;42.696;23.360;2022-11-20T13:16:02;94508.41;;;14.92;78.06
34742;BME280;20968;42.696;23.360;2022-11-20T13:18:38;94461.47;;;14.58;79.89
34742;BME280;20968;42.696;23.360;2022-11-20T13:21:40;94500.38;;;14.47;79.20
34742;BME280;20968;42.696;23.360;2022-11-20T13:26:44;94554.19;;;14.57;77.65
34742;BME280;20968;42.696;23.360;2022-11-20T13:29:16;94554.63;;;14.61;76.98
34742;BME280;20968;42.696;23.360;2022-11-20T13:31:45;94522.31;;;14.45;80.08
34742;BME280;20968;42.696;23.360;2022-11-20T13:34:24;94550.97;;;14.47;79.92
34742;BME280;20968;42.696;23.360;2022-11-20T13:36:53;94573.47;;;14.68;78.16
34742;BME280;20968;42.696;23.360;2022-11-20T13:39:34;94569.19;;;14.67;78.25
34742;BME280;20968;42.696;23.360;2022-11-20T13:44:42;94583.13;;;14.61;79.29
34742;BME280;20968;42.696;23.360;2022-11-20T13:49:48;94532.75;;;14.57;80.00
34742;BME280;20968;42.696;23.360;2022-11-20T13:53:21;94546.22;;;14.72;79.58
34742;BME280;20968;42.696;23.360;2022-11-20T14:01:26;94548.84;;;14.82;79.60
34742;BME280;20968;42.696;23.360;2022-11-20T14:03:55;94589.28;;;14.96;77.89
34742;BME280;20968;42.696;23.360;2022-11-20T14:06:29;94579.78;;;14.92;78.14
34742;BME280;20968;42.696;23.360;2022-11-20T14:08:57;94558.78;;;14.96;78.44
34742;BME280;20968;42.696;23.360;2022-11-20T14:11:25;94567.50;;;15.06;78.60
34742;BME280;20968;42.696;23.360;2022-11-20T14:14:03;94566.75;;;15.05;78.34
34742;BME280;20968;42.696;23.360;2022-11-20T14:16:34;94558.34;;;15.11;78.81
34742;BME280;20968;42.696;23.360;2022-11-20T14:19:29;94562.25;;;15.26;77.99
34742;BME280;20968;42.696;23.360;2022-11-20T14:22:15;94548.13;;;15.24;78.15
34742;BME280;20968;42.696;23.360;2022-11-20T14:24:44;94556.09;;;15.33;77.70